Time;durP1;ratioP1;P1;durP2;ratioP2;P2;SDS_P1;SDS_P2;PMS_P1;PMS_P2;Temp;Humidity;BMP_temperature;BMP_pressure;BME280_temperature;BME280_humidity;BME280_pressure;Samples;Min_cycle;Max_cycle;Signal;HPM_P1;HPM_P2
2021/05/24 00:00:45;;;;;;;6.40;1.58;;;;;;;9.66;100.00;99118.59;5093510;28;20031;-93
2021/05/24 00:03:12;;;;;;;1.50;0.90;;;;;;;9.73;100.00;99127.63;5093864;28;20118;-93
2021/05/24 00:05:38;;;;;;;2.05;1.17;;;;;;;9.68;100.00;99127.16;5093956;28;20040;-94
2021/05/24 00:08:04;;;;;;;2.83;1.15;;;;;;;9.66;100.00;99120.41;5094278;28;20086;-94
2021/05/24 00:10:32;;;;;;;5.10;1.42;;;;;;;9.65;100.00;99130.03;5093554;28;20027;-94
2021/05/24 00:13:02;;;;;;;4.72;0.98;;;;;;;9.64;100.00;99128.38;5093299;28;20035;-93
2021/05/24 00:15:47;;;;;;;7.25;1.48;;;;;;;9.50;100.00;99126.94;5090622;28;20032;-94
2021/05/24 00:18:14;;;;;;;4.82;2.30;;;;;;;9.53;100.00;99113.56;5094135;28;20043;-93
2021/05/24 00:20:50;;;;;;;4.40;1.48;;;;;;;9.57;100.00;99116.75;5094853;28;20020;-94
2021/05/24 00:23:16;;;;;;;7.97;1.48;;;;;;;9.49;100.00;99114.78;5093644;28;20110;-93
2021/05/24 00:25:41;;;;;;;3.90;1.30;;;;;;;9.41;100.00;99113.78;5093345;28;20024;-93
2021/05/24 00:28:11;;;;;;;4.30;1.25;;;;;;;9.40;100.00;99122.56;5094173;28;20028;-94
2021/05/24 00:30:38;;;;;;;7.13;1.67;;;;;;;9.23;100.00;99124.00;5092993;28;20050;-93
2021/05/24 00:33:06;;;;;;;4.30;1.60;;;;;;;9.36;100.00;99114.16;5092985;28;20020;-94
2021/05/24 00:35:32;;;;;;;3.47;1.50;;;;;;;9.42;100.00;99118.88;5092520;28;20112;-95
2021/05/24 00:37:58;;;;;;;4.45;1.58;;;;;;;9.44;100.00;99119.59;5092704;28;20075;-93
2021/05/24 00:40:23;;;;;;;4.28;1.50;;;;;;;9.48;100.00;99112.31;5092924;28;20023;-92
2021/05/24 00:42:49;;;;;;;9.95;1.65;;;;;;;9.28;100.00;99106.94;5092484;28;20385;-93
2021/05/24 00:45:15;;;;;;;5.55;1.67;;;;;;;9.29;100.00;99099.91;5092938;28;20557;-94
2021/05/24 00:47:41;;;;;;;8.02;1.40;;;;;;;9.30;100.00;99098.94;5092549;28;20067;-94
2021/05/24 00:50:08;;;;;;;8.02;1.50;;;;;;;9.12;100.00;99104.78;5092575;28;20028;-94
2021/05/24 00:52:35;;;;;;;4.95;1.50;;;;;;;9.21;100.00;99094.47;5092629;28;20046;-94
2021/05/24 00:55:00;;;;;;;5.97;1.83;;;;;;;9.62;100.00;99101.47;5092434;28;20118;-94
2021/05/24 00:57:26;;;;;;;5.95;1.67;;;;;;;9.02;100.00;99106.47;5092538;28;20123;-94
2021/05/24 00:59:51;;;;;;;3.85;1.50;;;;;;;8.89;100.00;99090.13;5092548;28;20474;-95
2021/05/24 01:02:17;;;;;;;3.33;1.60;;;;;;;8.87;100.00;99086.81;5092838;28;20028;-95
2021/05/24 01:04:43;;;;;;;5.75;1.90;;;;;;;8.83;100.00;99090.63;5092009;28;20485;-94
2021/05/24 01:07:08;;;;;;;3.20;1.98;;;;;;;8.88;100.00;99096.28;5092329;28;20745;-96
2021/05/24 01:09:34;;;;;;;5.03;1.85;;;;;;;8.90;100.00;99083.91;5092295;28;20020;-94
2021/05/24 01:12:00;;;;;;;11.25;2.10;;;;;;;8.88;100.00;99091.06;5092103;28;20489;-95
2021/05/24 01:14:27;;;;;;;7.05;2.10;;;;;;;8.84;100.00;99095.72;5092346;28;20134;-94
2021/05/24 01:16:54;;;;;;;6.00;2.00;;;;;;;8.80;100.00;99090.88;5092218;28;20024;-95
2021/05/24 01:19:21;;;;;;;6.00;2.65;;;;;;;8.83;100.00;99090.63;5092089;28;20020;-94
2021/05/24 01:21:47;;;;;;;7.32;2.13;;;;;;;8.66;100.00;99089.38;5092049;28;20054;-95
2021/05/24 01:24:13;;;;;;;5.95;2.42;;;;;;;8.66;100.00;99082.34;5092227;28;20118;-94
2021/05/24 01:26:40;;;;;;;7.13;2.08;;;;;;;8.80;100.00;99086.44;5091669;28;20115;-95
2021/05/24 01:29:06;;;;;;;6.93;2.53;;;;;;;8.72;100.00;99087.06;5092052;28;20023;-94
2021/05/24 01:31:32;;;;;;;6.22;2.20;;;;;;;8.64;100.00;99086.88;5092125;28;20032;-95
2021/05/24 01:33:58;;;;;;;9.40;2.88;;;;;;;8.67;100.00;99072.72;5091725;28;20028;-95
2021/05/24 01:36:26;;;;;;;7.13;2.95;;;;;;;8.72;100.00;99081.00;5092005;28;20049;-95
2021/05/24 01:38:51;;;;;;;6.30;2.33;;;;;;;8.74;100.00;99074.69;5091762;28;20497;-93
2021/05/24 01:41:17;;;;;;;8.00;2.28;;;;;;;8.73;100.00;99065.19;5091736;28;20031;-96
2021/05/24 01:43:42;;;;;;;8.20;2.67;;;;;;;8.73;100.00;99067.00;5091687;28;20116;-94
2021/05/24 01:46:08;;;;;;;9.65;2.75;;;;;;;8.79;100.00;99068.25;5091652;28;20035;-94
2021/05/24 01:48:35;;;;;;;7.05;2.83;;;;;;;8.80;100.00;99067.31;5091878;28;20028;-94
2021/05/24 01:51:01;;;;;;;4.22;2.08;;;;;;;8.73;100.00;99059.13;5091515;28;20042;-94
2021/05/24 01:53:27;;;;;;;10.13;3.20;;;;;;;8.84;100.00;99068.72;5092509;28;20544;-94
2021/05/24 01:55:53;;;;;;;11.95;5.13;;;;;;;8.84;100.00;99060.88;5091766;28;20032;-96
2021/05/24 01:58:19;;;;;;;7.80;2.63;;;;;;;8.95;100.00;99049.53;5091742;28;20477;-95
2021/05/24 02:00:45;;;;;;;11.73;2.80;;;;;;;8.96;100.00;99053.78;5091734;28;20020;-95
2021/05/24 02:03:11;;;;;;;6.68;3.13;;;;;;;8.95;100.00;99052.13;5091429;28;20032;-95
2021/05/24 02:05:37;;;;;;;10.02;2.78;;;;;;;8.93;100.00;99052.25;5092202;28;20024;-95
2021/05/24 02:08:04;;;;;;;9.60;2.80;;;;;;;9.04;100.00;99046.94;5091709;28;20123;-96
2021/05/24 02:10:33;;;;;;;7.13;2.10;;;;;;;8.99;100.00;99049.13;5091497;28;20020;-95
2021/05/24 02:12:59;;;;;;;6.03;2.58;;;;;;;9.02;100.00;99058.50;5091530;28;20069;-95
2021/05/24 02:15:28;;;;;;;10.88;3.60;;;;;;;8.99;100.00;99059.59;5092127;28;20028;-96
2021/05/24 02:17:54;;;;;;;6.10;3.42;;;;;;;9.01;100.00;99057.69;5095465;28;20029;-93
2021/05/24 02:20:23;;;;;;;7.78;3.05;;;;;;;9.01;100.00;99049.00;5095625;28;20496;-95
2021/05/24 02:22:50;;;;;;;11.52;3.50;;;;;;;9.06;100.00;99060.78;5095619;28;20035;-94
2021/05/24 02:25:16;;;;;;;9.77;3.10;;;;;;;9.13;100.00;99059.28;5095796;28;20031;-95
2021/05/24 02:27:41;;;;;;;8.45;3.50;;;;;;;9.18;100.00;99063.31;5095005;28;20054;-95
2021/05/24 02:30:09;;;;;;;9.40;3.42;;;;;;;9.17;100.00;99051.19;5095455;28;20028;-94
2021/05/24 02:32:35;;;;;;;8.57;3.10;;;;;;;9.24;100.00;99062.78;5095585;28;20020;-95
2021/05/24 02:35:01;;;;;;;14.27;3.67;;;;;;;9.24;100.00;99060.16;5095206;28;20031;-96
2021/05/24 02:37:26;;;;;;;8.18;3.28;;;;;;;9.33;100.00;99060.22;5095303;28;20031;-95
2021/05/24 02:39:52;;;;;;;8.55;3.55;;;;;;;9.27;100.00;99067.78;5095131;28;20024;-95
2021/05/24 02:42:19;;;;;;;10.95;4.30;;;;;;;9.42;100.00;99066.50;5095167;28;20089;-96
2021/05/24 02:44:45;;;;;;;15.45;3.90;;;;;;;9.34;100.00;99066.31;5095001;28;20089;-96
2021/05/24 02:47:11;;;;;;;11.45;4.20;;;;;;;9.43;100.00;99075.19;5095453;28;20462;-95
2021/05/24 02:49:36;;;;;;;12.25;3.97;;;;;;;9.50;100.00;99063.22;5094952;28;20024;-94
2021/05/24 02:52:02;;;;;;;9.77;3.90;;;;;;;9.42;100.00;99063.88;5095229;28;20035;-96
2021/05/24 02:54:28;;;;;;;5.43;3.42;;;;;;;9.41;100.00;99064.81;5094754;28;20031;-94
2021/05/24 02:56:53;;;;;;;7.25;3.38;;;;;;;9.14;100.00;99062.72;5095218;28;20107;-95
2021/05/24 02:59:19;;;;;;;8.30;3.30;;;;;;;9.17;100.00;99065.09;5095021;28;20469;-95
2021/05/24 03:01:44;;;;;;;7.70;3.50;;;;;;;9.28;100.00;99064.19;5095072;28;20106;-95
2021/05/24 03:04:10;;;;;;;6.88;3.25;;;;;;;9.42;100.00;99056.00;5094701;28;20035;-95
2021/05/24 03:06:36;;;;;;;10.25;4.20;;;;;;;9.45;100.00;99050.50;5095051;28;20051;-94
2021/05/24 03:09:02;;;;;;;8.13;4.00;;;;;;;9.45;100.00;99040.00;5095256;28;20016;-95
2021/05/24 03:11:28;;;;;;;9.77;3.30;;;;;;;9.30;100.00;99042.16;5094602;28;20028;-95
2021/05/24 03:13:53;;;;;;;7.82;2.70;;;;;;;9.36;100.00;99060.91;5094415;28;20166;-94
2021/05/24 03:16:18;;;;;;;6.32;2.53;;;;;;;9.25;100.00;99051.38;5094676;28;20043;-95
2021/05/24 03:18:44;;;;;;;8.32;2.75;;;;;;;9.25;100.00;99053.97;5094892;28;20089;-95
2021/05/24 03:21:10;;;;;;;7.13;3.35;;;;;;;9.19;100.00;99059.75;5094546;28;20456;-95
2021/05/24 03:23:35;;;;;;;7.25;3.35;;;;;;;9.11;100.00;99047.28;5094593;28;20028;-96
2021/05/24 03:26:01;;;;;;;7.00;3.15;;;;;;;9.02;100.00;99048.03;5093880;28;20028;-95
2021/05/24 03:28:26;;;;;;;10.10;3.28;;;;;;;8.81;100.00;99042.81;5094269;28;20489;-95
2021/05/24 03:30:52;;;;;;;9.10;3.47;;;;;;;8.95;100.00;99049.53;5094012;28;20358;-95
2021/05/24 03:33:17;;;;;;;6.60;3.10;;;;;;;8.86;100.00;99043.25;5094385;28;20076;-95
2021/05/24 03:35:42;;;;;;;6.03;3.15;;;;;;;8.65;100.00;99043.22;5094242;28;20031;-95
2021/05/24 03:38:08;;;;;;;9.80;2.72;;;;;;;8.44;100.00;99037.97;5094138;28;20028;-95
2021/05/24 03:40:34;;;;;;;5.63;2.50;;;;;;;8.49;100.00;99039.25;5094019;28;20016;-95
2021/05/24 03:42:59;;;;;;;5.53;2.45;;;;;;;8.44;100.00;99040.56;5094184;28;20054;-95
2021/05/24 03:45:30;;;;;;;6.22;2.30;;;;;;;8.30;100.00;99047.72;5093911;28;20030;-94
2021/05/24 03:47:56;;;;;;;11.10;3.03;;;;;;;8.26;100.00;99053.31;5093964;28;20028;-95
2021/05/24 03:50:22;;;;;;;7.63;2.83;;;;;;;8.29;100.00;99053.91;5093801;28;20070;-94
2021/05/24 03:52:47;;;;;;;10.20;2.67;;;;;;;8.15;100.00;99054.16;5093855;28;20030;-93
2021/05/24 03:55:14;;;;;;;10.20;2.50;;;;;;;8.06;100.00;99047.88;5093858;28;20031;-95
2021/05/24 03:57:40;;;;;;;6.50;2.80;;;;;;;8.23;100.00;99054.38;5094069;28;20024;-94
2021/05/24 04:00:08;;;;;;;8.32;2.20;;;;;;;8.28;100.00;99060.06;5094814;28;20116;-94
2021/05/24 04:02:33;;;;;;;7.80;2.53;;;;;;;8.32;100.00;99055.44;5093243;28;20496;-96
2021/05/24 04:05:02;;;;;;;12.93;4.63;;;;;;;8.30;100.00;99046.88;5093656;28;20024;-96
2021/05/24 04:07:28;;;;;;;8.25;2.92;;;;;;;8.29;100.00;99043.44;5093718;28;20492;-96
2021/05/24 04:09:54;;;;;;;12.80;2.70;;;;;;;8.35;100.00;99049.94;5093612;28;20016;-95
2021/05/24 04:12:19;;;;;;;10.57;2.35;;;;;;;8.28;100.00;99049.63;5093981;28;20024;-94
2021/05/24 04:14:45;;;;;;;9.35;2.63;;;;;;;8.25;100.00;99043.78;5093583;28;20377;-95
2021/05/24 04:17:13;;;;;;;12.18;3.10;;;;;;;8.30;100.00;99045.09;5092925;28;20142;-95
2021/05/24 04:19:41;;;;;;;8.13;3.20;;;;;;;8.31;100.00;99044.16;5093175;28;20036;-94
2021/05/24 04:22:06;;;;;;;9.55;2.88;;;;;;;8.43;100.00;99044.13;5093358;28;20047;-94
2021/05/24 04:24:31;;;;;;;7.95;3.40;;;;;;;8.48;100.00;99049.84;5093230;28;20211;-94
2021/05/24 04:26:57;;;;;;;8.40;2.88;;;;;;;8.50;100.00;99042.69;5092821;28;20097;-94
2021/05/24 04:29:23;;;;;;;12.45;2.80;;;;;;;8.40;100.00;99041.75;5093350;28;20023;-94
2021/05/24 04:31:48;;;;;;;9.68;2.40;;;;;;;8.63;100.00;99038.13;5093188;28;20089;-95
2021/05/24 04:34:13;;;;;;;5.75;2.85;;;;;;;8.82;100.00;99047.06;5092909;28;20485;-94
2021/05/24 04:36:39;;;;;;;9.98;2.75;;;;;;;8.81;100.00;99041.03;5092920;28;20185;-95
2021/05/24 04:39:05;;;;;;;11.15;2.70;;;;;;;8.89;100.00;99043.00;5092083;28;20039;-96
2021/05/24 04:41:30;;;;;;;8.75;2.58;;;;;;;9.07;100.00;99049.31;5092857;28;20070;-94
2021/05/24 04:44:07;;;;;;;9.13;2.50;;;;;;;9.02;100.00;99042.81;5093379;28;20081;-96
2021/05/24 04:46:33;;;;;;;12.40;2.67;;;;;;;8.81;100.00;99045.44;5092793;28;20024;-95
2021/05/24 04:48:58;;;;;;;5.13;2.13;;;;;;;8.88;100.00;99051.81;5092561;28;20046;-95
2021/05/24 04:51:23;;;;;;;5.35;2.17;;;;;;;8.99;100.00;99033.41;5092867;28;20024;-94
2021/05/24 04:53:49;;;;;;;7.65;2.17;;;;;;;9.20;100.00;99040.44;5092323;28;20043;-95
2021/05/24 04:56:14;;;;;;;7.30;2.17;;;;;;;9.29;100.00;99037.03;5093715;28;20028;-95
2021/05/24 04:58:40;;;;;;;7.40;2.47;;;;;;;9.40;100.00;99031.75;5091324;28;20028;-95
2021/05/24 05:01:05;;;;;;;13.38;2.55;;;;;;;9.52;100.00;99030.69;5091350;28;20024;-95
2021/05/24 05:03:33;;;;;;;10.65;3.30;;;;;;;9.62;100.00;99027.28;5092540;28;20020;-94
2021/05/24 05:05:58;;;;;;;6.63;2.42;;;;;;;9.76;100.00;99026.91;5092099;28;20075;-95
2021/05/24 05:08:24;;;;;;;11.60;2.42;;;;;;;9.89;100.00;99031.91;5091942;28;20502;-95
2021/05/24 05:10:49;;;;;;;11.88;2.85;;;;;;;9.93;100.00;99033.28;5092341;28;20043;-95
2021/05/24 05:13:14;;;;;;;12.30;2.50;;;;;;;10.07;100.00;99024.22;5092684;28;20510;-96
2021/05/24 05:15:40;;;;;;;9.20;3.08;;;;;;;10.09;100.00;99035.41;5092752;28;20186;-95
2021/05/24 05:18:05;;;;;;;15.07;4.13;;;;;;;10.11;100.00;99036.09;5092841;28;20878;-95
2021/05/24 05:20:31;;;;;;;12.38;3.38;;;;;;;10.05;100.00;99047.13;5093151;28;20458;-96
2021/05/24 05:22:56;;;;;;;9.07;3.17;;;;;;;10.07;100.00;99042.56;5094108;28;20047;-89
2021/05/24 05:25:22;;;;;;;9.50;2.25;;;;;;;10.08;100.00;99042.44;5096090;28;20047;-90
2021/05/24 05:27:47;;;;;;;14.38;2.53;;;;;;;10.03;100.00;99020.22;5094672;28;20028;-91
2021/05/24 05:30:13;;;;;;;12.27;2.72;;;;;;;10.20;100.00;99030.06;5092020;28;20106;-90
2021/05/24 05:32:38;;;;;;;16.10;3.05;;;;;;;10.21;100.00;99015.97;5090239;28;20028;-89
2021/05/24 05:35:05;;;;;;;10.43;2.95;;;;;;;10.39;100.00;99028.47;5087360;28;20389;-89
2021/05/24 05:37:30;;;;;;;16.50;2.50;;;;;;;10.58;100.00;99014.50;5090996;28;20143;-92
2021/05/24 05:39:57;;;;;;;19.70;2.58;;;;;;;10.68;100.00;99013.56;5090985;28;20107;-89
2021/05/24 05:42:23;;;;;;;13.50;2.67;;;;;;;10.81;100.00;99020.31;5091532;28;20031;-88
2021/05/24 05:44:48;;;;;;;12.55;2.28;;;;;;;10.94;100.00;99018.22;5092353;28;20032;-89
2021/05/24 05:47:14;;;;;;;18.40;3.80;;;;;;;11.11;100.00;99019.28;5091630;28;20031;-92
2021/05/24 05:49:40;;;;;;;16.23;3.25;;;;;;;11.07;100.00;99018.72;5091660;28;20413;-91
2021/05/24 05:52:06;;;;;;;15.02;2.55;;;;;;;11.07;100.00;99018.72;5091029;28;20020;-91
2021/05/24 05:54:31;;;;;;;12.43;3.28;;;;;;;11.10;100.00;99015.84;5091735;28;20028;-90
2021/05/24 05:56:57;;;;;;;15.80;2.70;;;;;;;11.14;100.00;99000.63;5090491;28;20408;-90
2021/05/24 05:59:22;;;;;;;14.30;2.33;;;;;;;11.22;100.00;98999.91;5091092;28;20059;-89
2021/05/24 06:01:48;;;;;;;11.45;1.88;;;;;;;11.20;100.00;98991.34;5090846;28;20469;-90
2021/05/24 06:04:13;;;;;;;13.90;2.60;;;;;;;11.35;100.00;98995.16;5091336;28;20074;-90
2021/05/24 06:06:38;;;;;;;11.75;2.10;;;;;;;11.23;100.00;98998.94;5091239;28;20020;-90
2021/05/24 06:09:04;;;;;;;18.90;2.67;;;;;;;11.08;100.00;98994.16;5091023;28;20028;-91
2021/05/24 06:11:30;;;;;;;14.68;3.30;;;;;;;11.05;100.00;99004.09;5091515;28;20496;-92
2021/05/24 06:13:55;;;;;;;20.63;3.08;;;;;;;11.17;100.00;99010.00;5091216;28;20035;-90
2021/05/24 06:16:22;;;;;;;15.60;3.05;;;;;;;11.20;100.00;99002.69;5090149;28;20047;-91
2021/05/24 06:18:47;;;;;;;13.30;3.88;;;;;;;11.26;100.00;99003.91;5091541;28;20527;-91
2021/05/24 06:21:12;;;;;;;14.15;3.67;;;;;;;11.24;100.00;99004.06;5091431;28;20024;-90
2021/05/24 06:23:38;;;;;;;19.38;3.20;;;;;;;11.34;100.00;99006.66;5091880;28;20549;-90
2021/05/24 06:26:04;;;;;;;12.10;2.92;;;;;;;11.48;100.00;99014.06;5091975;28;20020;-90
2021/05/24 06:28:29;;;;;;;17.27;3.03;;;;;;;11.51;100.00;99007.69;5091741;28;20027;-89
2021/05/24 06:30:55;;;;;;;15.05;3.00;;;;;;;11.57;100.00;99003.66;5091673;28;20073;-92
2021/05/24 06:33:20;;;;;;;16.73;2.75;;;;;;;11.69;100.00;99018.28;5092309;28;20016;-89
2021/05/24 06:35:45;;;;;;;17.52;3.17;;;;;;;11.67;100.00;99005.28;5092070;28;20502;-90
2021/05/24 06:38:11;;;;;;;20.70;3.80;;;;;;;11.67;100.00;99007.06;5092424;28;20024;-91
2021/05/24 06:40:36;;;;;;;14.35;2.47;;;;;;;11.69;100.00;99023.53;5091337;28;20036;-91
2021/05/24 06:43:02;;;;;;;14.23;3.45;;;;;;;11.62;100.00;99015.38;5091947;28;20024;-90
2021/05/24 06:45:27;;;;;;;17.67;3.30;;;;;;;11.66;100.00;99011.50;5091140;28;20050;-89
2021/05/24 06:47:52;;;;;;;13.13;2.25;;;;;;;11.74;100.00;99012.56;5091897;28;20107;-89
2021/05/24 06:50:18;;;;;;;13.65;2.65;;;;;;;11.82;100.00;99008.22;5092031;28;20409;-90
2021/05/24 06:52:43;;;;;;;12.43;2.35;;;;;;;11.80;100.00;99009.38;5089806;28;20301;-91
2021/05/24 06:55:10;;;;;;;19.05;2.65;;;;;;;11.79;100.00;99011.16;5091169;28;20057;-89
2021/05/24 06:57:35;;;;;;;13.68;2.80;;;;;;;11.69;100.00;99013.03;5091080;28;20035;-90
2021/05/24 07:00:02;;;;;;;20.35;3.13;;;;;;;11.67;100.00;99012.31;5091947;28;20024;-89
2021/05/24 07:02:27;;;;;;;15.85;2.55;;;;;;;11.61;100.00;99010.28;5093757;28;20435;-89
2021/05/24 07:04:52;;;;;;;21.45;2.95;;;;;;;11.53;100.00;99013.63;5095306;28;20036;-89
2021/05/24 07:07:18;;;;;;;33.13;4.85;;;;;;;11.58;100.00;99014.03;5094813;28;20039;-89
2021/05/24 07:09:43;;;;;;;20.33;3.00;;;;;;;11.84;100.00;99010.72;5094383;28;20024;-89
2021/05/24 07:12:09;;;;;;;15.27;2.40;;;;;;;11.83;100.00;99014.34;5094105;28;20028;-89
2021/05/24 07:14:34;;;;;;;17.85;2.33;;;;;;;12.02;100.00;99008.97;5094704;28;20024;-89
2021/05/24 07:17:00;;;;;;;20.55;2.72;;;;;;;11.61;100.00;99016.38;5094659;28;20020;-90
2021/05/24 07:19:26;;;;;;;13.88;2.40;;;;;;;11.87;100.00;99011.25;5094792;28;20032;-90
2021/05/24 07:21:53;;;;;;;14.00;2.33;;;;;;;11.76;100.00;99015.88;5094483;28;20052;-90
2021/05/24 07:24:18;;;;;;;28.02;3.30;;;;;;;11.84;100.00;99022.06;5094645;28;20054;-92
2021/05/24 07:26:43;;;;;;;14.15;2.67;;;;;;;11.79;100.00;99012.94;5096063;28;20024;-89
2021/05/24 07:29:09;;;;;;;12.43;2.28;;;;;;;11.62;100.00;99030.34;5094600;28;20027;-90
2021/05/24 07:31:34;;;;;;;9.30;1.63;;;;;;;11.62;100.00;99023.28;5093131;28;20032;-89
2021/05/24 07:33:59;;;;;;;17.23;2.28;;;;;;;11.21;100.00;99020.09;5094217;28;20024;-90
2021/05/24 07:36:25;;;;;;;7.22;1.73;;;;;;;11.54;100.00;99036.31;5094601;28;20046;-90
2021/05/24 07:38:50;;;;;;;7.63;1.42;;;;;;;11.65;100.00;99027.41;5094476;28;20058;-90
2021/05/24 07:41:16;;;;;;;5.78;1.10;;;;;;;11.96;100.00;99043.78;5094314;28;20077;-89
2021/05/24 07:43:41;;;;;;;12.68;1.70;;;;;;;11.98;100.00;99031.28;5094151;28;20020;-90
2021/05/24 07:46:07;;;;;;;5.80;2.67;;;;;;;12.14;100.00;99027.19;5094278;28;20020;-89
2021/05/24 07:48:33;;;;;;;12.15;1.40;;;;;;;12.23;100.00;99037.66;5094376;28;20069;-89
2021/05/24 07:51:00;;;;;;;5.22;0.63;;;;;;;12.22;100.00;99036.03;5094371;28;20024;-89
2021/05/24 07:53:25;;;;;;;6.53;1.15;;;;;;;12.05;100.00;99037.63;5094313;28;20537;-89
2021/05/24 07:55:51;;;;;;;80.05;7.45;;;;;;;12.15;100.00;99040.22;5093957;28;20123;-90
2021/05/24 07:58:16;;;;;;;29.98;3.42;;;;;;;11.91;100.00;99035.50;5094514;28;20032;-90
2021/05/24 08:00:41;;;;;;;6.15;1.00;;;;;;;12.21;100.00;99044.88;5103617;28;20092;-91
2021/05/24 08:03:07;;;;;;;92.35;8.48;;;;;;;12.80;100.00;99037.38;5104436;28;20424;-89
2021/05/24 08:05:32;;;;;;;22.40;2.25;;;;;;;13.22;96.11;99043.78;5109583;28;20027;-89
2021/05/24 08:07:58;;;;;;;5.47;1.27;;;;;;;13.54;95.21;99037.09;5110907;28;20020;-89
2021/05/24 08:10:23;;;;;;;6.70;0.95;;;;;;;13.81;95.54;99030.78;5103345;28;20020;-90
2021/05/24 08:12:49;;;;;;;4.90;1.00;;;;;;;13.92;90.31;99033.16;5104679;28;20028;-90
2021/05/24 08:15:22;;;;;;;5.70;1.00;;;;;;;14.24;93.59;99035.06;5101833;28;20028;-90
2021/05/24 08:17:47;;;;;;;4.15;0.85;;;;;;;15.19;91.87;99033.81;5106151;28;20054;-89
2021/05/24 08:20:14;;;;;;;2.13;0.95;;;;;;;15.27;83.58;99025.88;5105504;28;20031;-90
2021/05/24 08:22:41;;;;;;;3.88;0.65;;;;;;;15.98;80.99;99028.66;5100277;28;20050;-90
2021/05/24 08:25:08;;;;;;;5.38;0.93;;;;;;;16.08;78.59;99021.31;5097178;28;20055;-90
2021/05/24 08:27:35;;;;;;;5.53;1.40;;;;;;;16.96;75.06;99017.41;5098589;28;20045;-87
2021/05/24 08:30:02;;;;;;;4.35;1.13;;;;;;;16.74;73.83;99026.16;5100677;28;20020;-89
2021/05/24 08:32:28;;;;;;;10.10;1.67;;;;;;;17.44;70.83;99020.56;5094004;28;20055;-89
2021/05/24 08:34:53;;;;;;;3.97;0.88;;;;;;;19.00;67.62;99010.50;5095106;28;20170;-89
2021/05/24 08:37:19;;;;;;;5.65;0.95;;;;;;;19.41;64.56;99012.41;5093578;28;20462;-89
2021/05/24 08:39:44;;;;;;;5.47;1.10;;;;;;;19.88;66.08;99015.31;5093694;28;20500;-90
2021/05/24 08:42:11;;;;;;;4.97;0.63;;;;;;;19.10;62.21;99015.47;5093438;28;20032;-89
2021/05/24 08:44:38;;;;;;;2.60;0.70;;;;;;;19.11;62.37;99017.09;5093991;28;20470;-91
2021/05/24 08:47:04;;;;;;;4.72;1.02;;;;;;;18.02;64.54;99028.72;5093494;28;20028;-89
2021/05/24 08:49:30;;;;;;;4.90;1.30;;;;;;;17.89;62.44;99025.91;5093301;28;20042;-90
2021/05/24 08:51:55;;;;;;;3.85;0.88;;;;;;;18.14;68.10;99031.69;5093695;28;20024;-89
2021/05/24 08:54:21;;;;;;;7.20;0.93;;;;;;;17.72;67.81;99027.91;5094033;28;20386;-90
2021/05/24 08:56:47;;;;;;;20.55;1.40;;;;;;;17.25;68.96;99024.56;5073794;28;20025;-90
2021/05/24 08:59:12;;;;;;;4.75;0.77;;;;;;;16.76;64.32;99018.88;5088998;28;20011;-91
2021/05/24 09:01:38;;;;;;;7.72;0.93;;;;;;;16.66;67.30;99027.88;5092326;28;20032;-90
2021/05/24 09:04:05;;;;;;;5.78;0.88;;;;;;;16.78;73.73;99035.41;5093587;28;20032;-90
2021/05/24 09:06:39;;;;;;;4.93;0.80;;;;;;;17.77;68.01;99025.53;5094182;28;20051;-91
2021/05/24 09:09:08;;;;;;;5.18;0.90;;;;;;;19.08;69.68;99017.50;5093237;28;20016;-89
2021/05/24 09:11:34;;;;;;;4.20;1.00;;;;;;;19.80;62.38;99020.81;5092854;28;20024;-91
2021/05/24 09:14:00;;;;;;;5.68;1.05;;;;;;;21.20;61.89;99016.56;5093130;28;20054;-91
2021/05/24 09:16:31;;;;;;;5.47;1.58;;;;;;;21.88;53.63;99015.44;5083403;28;20032;-91
2021/05/24 09:19:36;;;;;;;5.18;1.02;;;;;;;22.31;50.66;99022.03;5093433;28;20016;-91
2021/05/24 09:22:08;;;;;;;5.65;1.25;;;;;;;22.64;50.90;99027.16;5090546;28;20425;-92
2021/05/24 09:24:37;;;;;;;5.47;1.08;;;;;;;24.00;47.35;99030.03;5075013;28;20041;-93
2021/05/24 09:27:06;;;;;;;5.05;1.02;;;;;;;23.99;45.03;99023.03;5076923;28;20050;-91
2021/05/24 09:29:46;;;;;;;5.90;0.90;;;;;;;23.01;47.11;99023.81;5086482;28;20024;-91
2021/05/24 09:32:25;;;;;;;5.10;0.82;;;;;;;21.91;48.88;99022.19;5080948;28;20020;-92
2021/05/24 09:34:51;;;;;;;5.25;1.10;;;;;;;20.98;49.62;99032.00;5092943;28;20117;-90
2021/05/24 09:37:20;;;;;;;5.55;1.10;;;;;;;20.19;52.60;99036.16;5092703;28;20115;-92
2021/05/24 09:39:46;;;;;;;7.32;1.10;;;;;;;19.65;53.75;99028.09;5092771;28;20463;-91
2021/05/24 09:42:15;;;;;;;5.03;1.00;;;;;;;19.89;53.78;99024.16;5092614;28;20027;-93
2021/05/24 09:44:55;;;;;;;4.78;0.90;;;;;;;19.54;57.40;99021.47;5093339;28;20441;-92
2021/05/24 09:47:38;;;;;;;6.13;1.38;;;;;;;19.86;55.59;99019.22;5092287;28;20038;-91
2021/05/24 09:50:14;;;;;;;4.85;0.90;;;;;;;20.69;52.83;99029.72;5088622;28;20031;-91
2021/05/24 09:52:40;;;;;;;12.65;1.65;;;;;;;20.84;54.00;99024.22;5091756;28;20047;-91
2021/05/24 09:55:23;;;;;;;6.10;1.40;;;;;;;21.39;50.78;99020.25;5071884;28;20032;-92
2021/05/24 09:58:00;;;;;;;7.82;1.23;;;;;;;21.10;48.49;99015.38;5080115;28;20016;-91
2021/05/24 10:03:30;;;;;;;6.65;1.00;;;;;;;20.17;51.24;99027.53;5098210;28;20040;-91
2021/05/24 10:05:55;;;;;;;8.20;2.08;;;;;;;20.36;51.18;99028.63;5091652;28;20105;-91
2021/05/24 10:08:21;;;;;;;16.10;1.70;;;;;;;20.52;50.82;99035.41;5092119;28;20050;-92
2021/05/24 10:10:46;;;;;;;11.15;1.23;;;;;;;20.58;52.17;99023.94;5091799;28;20034;-89
2021/05/24 10:13:12;;;;;;;5.35;0.80;;;;;;;21.04;50.09;99033.03;5092177;28;20444;-89
2021/05/24 10:15:43;;;;;;;5.82;1.02;;;;;;;20.35;52.04;99031.47;5089853;28;20032;-88
2021/05/24 10:18:09;;;;;;;4.03;1.00;;;;;;;20.83;51.79;99028.69;5091607;28;20109;-89
2021/05/24 10:20:35;;;;;;;7.30;2.42;;;;;;;21.34;50.69;99032.59;5091360;28;20055;-91
2021/05/24 10:23:01;;;;;;;6.75;1.17;;;;;;;22.95;48.74;99023.66;5082301;28;20097;-91
2021/05/24 10:25:27;;;;;;;3.03;0.70;;;;;;;24.00;44.24;99019.31;5088515;28;20028;-90
2021/05/24 10:27:53;;;;;;;7.65;1.02;;;;;;;23.83;42.25;99023.66;5075486;28;20034;-93
2021/05/24 10:30:20;;;;;;;41.80;4.82;;;;;;;22.93;43.02;99019.56;5091821;28;20048;-90
2021/05/24 10:32:53;;;;;;;7.93;1.25;;;;;;;22.18;45.80;99023.72;5091346;28;20031;-89
2021/05/24 10:35:45;;;;;;;5.18;0.77;;;;;;;21.44;45.86;99016.97;5091213;28;20147;-89
2021/05/24 10:38:35;;;;;;;5.60;1.02;;;;;;;20.64;53.23;99018.88;5094631;28;20036;-90
2021/05/24 10:41:11;;;;;;;5.40;1.58;;;;;;;20.98;52.27;99024.00;5095552;28;20055;-91
2021/05/24 10:43:48;;;;;;;6.10;0.68;;;;;;;20.56;46.03;99018.00;5095580;28;20127;-91
2021/05/24 10:46:26;;;;;;;6.32;1.13;;;;;;;21.45;51.19;99012.50;5094994;28;20031;-91
2021/05/24 10:49:03;;;;;;;7.30;1.45;;;;;;;21.95;48.26;99008.19;5095957;28;20016;-90
2021/05/24 10:51:47;;;;;;;4.55;1.13;;;;;;;21.99;48.17;99013.94;5093710;28;20028;-90
2021/05/24 10:54:21;;;;;;;3.95;0.95;;;;;;;21.76;46.50;99023.28;5095328;28;20039;-90
2021/05/24 10:57:13;;;;;;;4.78;0.90;;;;;;;20.82;47.18;99028.94;5095385;28;20024;-88
2021/05/24 10:59:38;;;;;;;;;;;;;;;19.41;52.04;99033.72;5095928;28;20032;-89
2021/05/24 11:02:07;;;;;;;7.73;0.93;;;;;;;19.16;51.19;99030.66;5095252;28;19972;-89
2021/05/24 11:05:00;;;;;;;6.88;0.90;;;;;;;19.19;53.14;99029.44;5095977;28;20267;-89
2021/05/24 11:07:33;;;;;;;6.93;1.60;;;;;;;19.84;51.75;99037.25;5095100;28;20121;-89
2021/05/24 11:10:14;;;;;;;3.17;0.60;;;;;;;20.40;51.72;99034.38;5095291;28;20027;-89
2021/05/24 11:12:43;;;;;;;18.95;1.83;;;;;;;20.21;50.60;99039.44;5094445;28;20509;-89
2021/05/24 11:15:14;;;;;;;9.00;0.88;;;;;;;20.48;53.32;99047.50;5095051;28;20039;-90
2021/05/24 11:18:02;;;;;;;13.48;5.85;;;;;;;21.14;52.86;99049.44;5094741;28;20033;-91
2021/05/24 11:20:28;;;;;;;4.30;1.70;;;;;;;21.35;53.02;99048.41;5074421;28;20043;-90
2021/05/24 11:23:06;;;;;;;11.23;4.53;;;;;;;21.53;50.18;99046.97;5093110;28;20385;-91
2021/05/24 11:28:16;;;;;;;21.35;10.82;;;;;;;21.30;51.28;99050.88;5092879;28;20093;-90
2021/05/24 11:30:42;;;;;;;7.20;1.63;;;;;;;21.37;50.46;99054.34;5094271;28;20032;-90
2021/05/24 11:33:38;;;;;;;6.80;1.35;;;;;;;20.88;48.84;99066.28;5094858;28;20465;-91
2021/05/24 11:36:05;;;;;;;65.47;6.05;;;;;;;20.61;51.12;99065.41;5094950;28;20032;-91